The Plains, VA (20198)

2:12 AM EDT on August 26, 2016 (GMT -0400)
Bear Hollow Bull Run Mtn. | | Change Station

Elev 633 ft 38.87 °N, 77.68 °W | Updated 15 seconds ago

Clear
Clear
80.1 °F
Feels Like 85 °F
N
1.6
Wind Variable Wind from South
Gusts 4.5 mph

Today
High -- | Low -- °F
--% Chance of Precip.
Yesterday
High -- | Low -- °F
Precip. -- in
Pressure 30.02 in
Visibility 9.0 miles
Clouds Clear
Heat Index 85 °F
Dew Point 74 °F
Humidity 82%
Rainfall 0.00 in
Snow Depth Not available.
6:35 AM 7:49 PM
Last Quarter, 38% visible
METAR KHEF 260555Z 00000KT 9SM CLR 23/23 A3002 RMK AO1 10280 20230 54000
Pressure 30.02 in
Visibility 9.0 miles
Clouds Clear
Heat Index 85 °F
Dew Point 74 °F
Humidity 82%
Rainfall 0.00 in
Snow Depth Not available.
6:35 AM 7:49 PM
Last Quarter, 38% visible
METAR KHEF 260555Z 00000KT 9SM CLR 23/23 A3002 RMK AO1 10280 20230 54000

10-Day Weather Forecast

Almanac

Astronomy

Aug. 26, 2016 Rise Set
Actual Time
Civil Twilight
Nautical Twilight
Astronomical Twilight
Moon
Length of Visible Light
Length of Day
Tomorrow will be .
, % of the Moon is Illuminated

Today's Extremes

State Highs State Lows

Community

WunderPhotos

Upload Photos

1,935,057 photos uploaded!

WunderBlog® & News

Nearby

Air Quality

  Air Quality AQ Index Pollutant
Not available.

Snow Depth

Station Depth Elevation

Earthquake Activity

City Distance Mag. Time & Date
Minimum magnitude displayed is 2.5.

Coastal Water Temperatures

Place Temperature

Stations

Nearby Weather Stations

Station Location Temp. Windchill Dew Point Humidity Wind Precip. Elev Updated Type
                   

Watches & Warnings

There are currently no watches in effect.